sensor_id;sensor_type;location;lat;lon;timestamp;P1;durP1;ratioP1;P2;durP2;ratioP2
32748;SDS011;19119;52.474;13.710;2024-01-30T00:01:04;7.88;;;4.75;;
32748;SDS011;19119;52.474;13.710;2024-01-30T00:03:29;12.40;;;5.30;;
32748;SDS011;19119;52.474;13.710;2024-01-30T00:05:55;12.52;;;5.75;;
32748;SDS011;19119;52.474;13.710;2024-01-30T00:08:20;9.65;;;5.55;;
32748;SDS011;19119;52.474;13.710;2024-01-30T00:10:46;12.70;;;5.38;;
32748;SDS011;19119;52.474;13.710;2024-01-30T00:13:11;13.07;;;6.00;;
32748;SDS011;19119;52.474;13.710;2024-01-30T00:15:38;13.68;;;5.90;;
32748;SDS011;19119;52.474;13.710;2024-01-30T00:18:04;11.57;;;5.30;;
32748;SDS011;19119;52.474;13.710;2024-01-30T00:20:29;11.48;;;6.25;;
32748;SDS011;19119;52.474;13.710;2024-01-30T00:22:55;10.88;;;5.65;;
32748;SDS011;19119;52.474;13.710;2024-01-30T00:25:20;9.25;;;5.07;;
32748;SDS011;19119;52.474;13.710;2024-01-30T00:27:46;12.13;;;5.35;;
32748;SDS011;19119;52.474;13.710;2024-01-30T00:30:11;10.68;;;5.05;;
32748;SDS011;19119;52.474;13.710;2024-01-30T00:32:37;13.32;;;6.13;;
32748;SDS011;19119;52.474;13.710;2024-01-30T00:35:03;12.05;;;5.47;;
32748;SDS011;19119;52.474;13.710;2024-01-30T00:37:28;11.48;;;5.50;;
32748;SDS011;19119;52.474;13.710;2024-01-30T00:39:54;10.57;;;6.18;;
32748;SDS011;19119;52.474;13.710;2024-01-30T00:42:19;13.00;;;6.15;;
32748;SDS011;19119;52.474;13.710;2024-01-30T00:44:45;11.70;;;5.43;;
32748;SDS011;19119;52.474;13.710;2024-01-30T00:47:10;10.85;;;5.70;;
32748;SDS011;19119;52.474;13.710;2024-01-30T00:49:36;12.82;;;6.72;;
32748;SDS011;19119;52.474;13.710;2024-01-30T00:52:01;11.43;;;5.70;;
32748;SDS011;19119;52.474;13.710;2024-01-30T00:54:27;14.25;;;5.95;;
32748;SDS011;19119;52.474;13.710;2024-01-30T00:56:52;12.75;;;5.63;;
32748;SDS011;19119;52.474;13.710;2024-01-30T00:59:18;12.48;;;6.85;;
32748;SDS011;19119;52.474;13.710;2024-01-30T01:01:43;11.05;;;5.45;;
32748;SDS011;19119;52.474;13.710;2024-01-30T01:04:09;12.65;;;5.65;;
32748;SDS011;19119;52.474;13.710;2024-01-30T01:06:34;15.55;;;6.30;;
32748;SDS011;19119;52.474;13.710;2024-01-30T01:08:59;12.75;;;5.78;;
32748;SDS011;19119;52.474;13.710;2024-01-30T01:11:25;10.65;;;4.82;;
32748;SDS011;19119;52.474;13.710;2024-01-30T01:13:51;10.48;;;5.00;;
32748;SDS011;19119;52.474;13.710;2024-01-30T01:16:16;11.27;;;5.82;;
32748;SDS011;19119;52.474;13.710;2024-01-30T01:18:42;12.68;;;5.88;;
32748;SDS011;19119;52.474;13.710;2024-01-30T01:21:07;12.35;;;6.47;;
32748;SDS011;19119;52.474;13.710;2024-01-30T01:23:32;11.23;;;5.55;;
32748;SDS011;19119;52.474;13.710;2024-01-30T01:25:58;8.73;;;5.30;;
32748;SDS011;19119;52.474;13.710;2024-01-30T01:28:24;11.18;;;6.35;;
32748;SDS011;19119;52.474;13.710;2024-01-30T01:30:50;9.57;;;4.97;;
32748;SDS011;19119;52.474;13.710;2024-01-30T01:33:16;10.77;;;6.00;;
32748;SDS011;19119;52.474;13.710;2024-01-30T01:35:42;11.15;;;6.20;;
32748;SDS011;19119;52.474;13.710;2024-01-30T01:38:07;15.43;;;6.55;;
32748;SDS011;19119;52.474;13.710;2024-01-30T01:40:33;13.15;;;6.25;;
32748;SDS011;19119;52.474;13.710;2024-01-30T01:42:58;11.50;;;6.40;;
32748;SDS011;19119;52.474;13.710;2024-01-30T01:45:28;20.20;;;6.88;;
32748;SDS011;19119;52.474;13.710;2024-01-30T01:47:54;12.27;;;6.55;;
32748;SDS011;19119;52.474;13.710;2024-01-30T01:50:20;11.95;;;5.55;;
32748;SDS011;19119;52.474;13.710;2024-01-30T01:52:49;13.52;;;5.15;;
32748;SDS011;19119;52.474;13.710;2024-01-30T01:55:16;11.32;;;6.10;;
32748;SDS011;19119;52.474;13.710;2024-01-30T01:57:43;11.38;;;6.07;;
32748;SDS011;19119;52.474;13.710;2024-01-30T02:00:09;11.48;;;6.03;;
32748;SDS011;19119;52.474;13.710;2024-01-30T02:02:36;12.10;;;6.03;;
32748;SDS011;19119;52.474;13.710;2024-01-30T02:05:03;11.38;;;6.03;;
32748;SDS011;19119;52.474;13.710;2024-01-30T02:07:29;11.23;;;5.78;;
32748;SDS011;19119;52.474;13.710;2024-01-30T02:09:55;11.77;;;6.18;;
32748;SDS011;19119;52.474;13.710;2024-01-30T02:12:21;12.40;;;6.90;;
32748;SDS011;19119;52.474;13.710;2024-01-30T02:14:49;13.25;;;7.00;;
32748;SDS011;19119;52.474;13.710;2024-01-30T02:17:15;13.45;;;6.53;;
32748;SDS011;19119;52.474;13.710;2024-01-30T02:19:41;10.00;;;5.90;;
32748;SDS011;19119;52.474;13.710;2024-01-30T02:22:07;11.10;;;6.05;;
32748;SDS011;19119;52.474;13.710;2024-01-30T02:24:33;12.57;;;6.57;;
32748;SDS011;19119;52.474;13.710;2024-01-30T02:26:58;12.38;;;6.88;;
32748;SDS011;19119;52.474;13.710;2024-01-30T02:29:24;16.27;;;7.25;;
32748;SDS011;19119;52.474;13.710;2024-01-30T02:31:50;15.63;;;6.93;;
32748;SDS011;19119;52.474;13.710;2024-01-30T02:34:15;15.25;;;7.55;;
32748;SDS011;19119;52.474;13.710;2024-01-30T02:36:44;12.75;;;6.82;;
32748;SDS011;19119;52.474;13.710;2024-01-30T02:39:09;13.02;;;6.72;;
32748;SDS011;19119;52.474;13.710;2024-01-30T02:41:35;14.57;;;6.75;;
32748;SDS011;19119;52.474;13.710;2024-01-30T02:44:01;14.25;;;6.13;;
32748;SDS011;19119;52.474;13.710;2024-01-30T02:46:27;12.00;;;6.53;;
32748;SDS011;19119;52.474;13.710;2024-01-30T02:48:53;13.98;;;6.57;;
32748;SDS011;19119;52.474;13.710;2024-01-30T02:51:18;12.57;;;6.43;;
32748;SDS011;19119;52.474;13.710;2024-01-30T02:53:44;15.88;;;6.70;;
32748;SDS011;19119;52.474;13.710;2024-01-30T02:56:09;13.57;;;7.30;;
32748;SDS011;19119;52.474;13.710;2024-01-30T02:58:35;16.48;;;7.20;;
32748;SDS011;19119;52.474;13.710;2024-01-30T03:01:01;18.23;;;6.95;;
32748;SDS011;19119;52.474;13.710;2024-01-30T03:03:27;13.13;;;6.15;;
32748;SDS011;19119;52.474;13.710;2024-01-30T03:05:53;15.40;;;6.47;;
32748;SDS011;19119;52.474;13.710;2024-01-30T03:08:18;12.82;;;6.50;;
32748;SDS011;19119;52.474;13.710;2024-01-30T03:10:44;13.88;;;7.43;;
32748;SDS011;19119;52.474;13.710;2024-01-30T03:13:09;11.82;;;6.75;;
32748;SDS011;19119;52.474;13.710;2024-01-30T03:15:35;11.85;;;6.00;;
32748;SDS011;19119;52.474;13.710;2024-01-30T03:18:01;13.00;;;6.15;;
32748;SDS011;19119;52.474;13.710;2024-01-30T03:20:28;13.90;;;6.97;;
32748;SDS011;19119;52.474;13.710;2024-01-30T03:22:55;13.52;;;6.68;;
32748;SDS011;19119;52.474;13.710;2024-01-30T03:25:21;13.35;;;6.07;;
32748;SDS011;19119;52.474;13.710;2024-01-30T03:27:46;16.90;;;6.90;;
32748;SDS011;19119;52.474;13.710;2024-01-30T03:30:12;16.67;;;7.60;;
32748;SDS011;19119;52.474;13.710;2024-01-30T03:32:37;13.32;;;6.63;;
32748;SDS011;19119;52.474;13.710;2024-01-30T03:35:03;13.57;;;6.40;;
32748;SDS011;19119;52.474;13.710;2024-01-30T03:37:29;12.73;;;7.32;;
32748;SDS011;19119;52.474;13.710;2024-01-30T03:39:55;12.23;;;6.65;;
32748;SDS011;19119;52.474;13.710;2024-01-30T03:42:20;15.38;;;7.65;;
32748;SDS011;19119;52.474;13.710;2024-01-30T03:44:46;16.20;;;6.93;;
32748;SDS011;19119;52.474;13.710;2024-01-30T03:47:11;13.23;;;6.47;;
32748;SDS011;19119;52.474;13.710;2024-01-30T03:49:37;15.13;;;6.65;;
32748;SDS011;19119;52.474;13.710;2024-01-30T03:52:02;12.57;;;6.22;;
32748;SDS011;19119;52.474;13.710;2024-01-30T03:54:28;13.13;;;6.60;;
32748;SDS011;19119;52.474;13.710;2024-01-30T03:56:54;12.63;;;7.13;;
32748;SDS011;19119;52.474;13.710;2024-01-30T03:59:19;13.32;;;6.78;;
32748;SDS011;19119;52.474;13.710;2024-01-30T04:01:49;14.00;;;7.07;;
32748;SDS011;19119;52.474;13.710;2024-01-30T04:04:15;12.00;;;6.40;;
32748;SDS011;19119;52.474;13.710;2024-01-30T04:06:41;17.38;;;7.40;;
32748;SDS011;19119;52.474;13.710;2024-01-30T04:09:06;12.75;;;6.32;;
32748;SDS011;19119;52.474;13.710;2024-01-30T04:11:32;15.20;;;7.40;;
32748;SDS011;19119;52.474;13.710;2024-01-30T04:13:57;19.77;;;7.53;;
32748;SDS011;19119;52.474;13.710;2024-01-30T04:16:23;11.98;;;6.25;;
32748;SDS011;19119;52.474;13.710;2024-01-30T04:18:48;17.35;;;7.10;;
32748;SDS011;19119;52.474;13.710;2024-01-30T04:21:14;12.85;;;6.40;;
32748;SDS011;19119;52.474;13.710;2024-01-30T04:23:40;13.43;;;6.90;;
32748;SDS011;19119;52.474;13.710;2024-01-30T04:26:06;12.75;;;6.72;;
32748;SDS011;19119;52.474;13.710;2024-01-30T04:28:31;14.52;;;7.65;;
32748;SDS011;19119;52.474;13.710;2024-01-30T04:30:57;16.67;;;7.30;;
32748;SDS011;19119;52.474;13.710;2024-01-30T04:33:23;13.75;;;7.20;;
32748;SDS011;19119;52.474;13.710;2024-01-30T04:35:48;12.88;;;7.20;;
32748;SDS011;19119;52.474;13.710;2024-01-30T04:38:13;12.93;;;7.10;;
32748;SDS011;19119;52.474;13.710;2024-01-30T04:40:39;12.32;;;6.50;;
32748;SDS011;19119;52.474;13.710;2024-01-30T04:43:05;15.57;;;6.57;;
32748;SDS011;19119;52.474;13.710;2024-01-30T04:45:31;14.43;;;6.65;;
32748;SDS011;19119;52.474;13.710;2024-01-30T04:47:56;14.18;;;7.25;;
32748;SDS011;19119;52.474;13.710;2024-01-30T04:50:22;13.15;;;6.75;;
32748;SDS011;19119;52.474;13.710;2024-01-30T04:52:48;14.05;;;6.95;;
32748;SDS011;19119;52.474;13.710;2024-01-30T04:55:13;14.45;;;7.28;;
32748;SDS011;19119;52.474;13.710;2024-01-30T04:57:39;12.88;;;6.80;;
32748;SDS011;19119;52.474;13.710;2024-01-30T05:00:05;15.07;;;6.97;;
32748;SDS011;19119;52.474;13.710;2024-01-30T05:02:31;17.80;;;8.15;;
32748;SDS011;19119;52.474;13.710;2024-01-30T05:04:59;10.77;;;6.35;;
32748;SDS011;19119;52.474;13.710;2024-01-30T05:07:25;12.65;;;7.07;;
32748;SDS011;19119;52.474;13.710;2024-01-30T05:09:51;12.80;;;6.72;;
32748;SDS011;19119;52.474;13.710;2024-01-30T05:12:16;14.40;;;7.25;;
32748;SDS011;19119;52.474;13.710;2024-01-30T05:14:45;12.27;;;6.43;;
32748;SDS011;19119;52.474;13.710;2024-01-30T05:17:10;12.07;;;7.38;;
32748;SDS011;19119;52.474;13.710;2024-01-30T05:19:37;11.63;;;6.20;;
32748;SDS011;19119;52.474;13.710;2024-01-30T05:22:03;14.43;;;6.45;;
32748;SDS011;19119;52.474;13.710;2024-01-30T05:24:29;12.75;;;6.63;;
32748;SDS011;19119;52.474;13.710;2024-01-30T05:26:54;15.63;;;6.38;;
32748;SDS011;19119;52.474;13.710;2024-01-30T05:29:20;12.90;;;7.07;;
32748;SDS011;19119;52.474;13.710;2024-01-30T05:31:45;14.23;;;5.45;;
32748;SDS011;19119;52.474;13.710;2024-01-30T05:34:11;11.10;;;7.25;;
32748;SDS011;19119;52.474;13.710;2024-01-30T05:36:36;10.20;;;5.93;;
32748;SDS011;19119;52.474;13.710;2024-01-30T05:39:02;17.75;;;7.00;;
32748;SDS011;19119;52.474;13.710;2024-01-30T05:41:28;13.15;;;7.97;;
32748;SDS011;19119;52.474;13.710;2024-01-30T05:43:53;12.95;;;6.85;;
32748;SDS011;19119;52.474;13.710;2024-01-30T05:46:18;12.82;;;7.00;;
32748;SDS011;19119;52.474;13.710;2024-01-30T05:48:44;15.52;;;6.50;;
32748;SDS011;19119;52.474;13.710;2024-01-30T05:51:09;14.90;;;6.85;;
32748;SDS011;19119;52.474;13.710;2024-01-30T05:53:35;16.13;;;6.82;;
32748;SDS011;19119;52.474;13.710;2024-01-30T05:56:01;16.02;;;7.30;;
32748;SDS011;19119;52.474;13.710;2024-01-30T05:58:27;16.80;;;6.65;;
32748;SDS011;19119;52.474;13.710;2024-01-30T06:00:53;17.23;;;7.18;;
32748;SDS011;19119;52.474;13.710;2024-01-30T06:03:18;16.48;;;7.38;;
32748;SDS011;19119;52.474;13.710;2024-01-30T06:05:44;14.48;;;7.35;;
32748;SDS011;19119;52.474;13.710;2024-01-30T06:08:09;16.40;;;7.43;;
32748;SDS011;19119;52.474;13.710;2024-01-30T06:10:35;12.88;;;6.70;;
32748;SDS011;19119;52.474;13.710;2024-01-30T06:13:01;14.82;;;7.32;;
32748;SDS011;19119;52.474;13.710;2024-01-30T06:15:26;16.33;;;8.23;;
32748;SDS011;19119;52.474;13.710;2024-01-30T06:17:54;13.77;;;8.02;;
32748;SDS011;19119;52.474;13.710;2024-01-30T06:20:20;15.38;;;7.43;;
32748;SDS011;19119;52.474;13.710;2024-01-30T06:22:46;14.43;;;7.97;;
32748;SDS011;19119;52.474;13.710;2024-01-30T06:25:11;15.95;;;8.15;;
32748;SDS011;19119;52.474;13.710;2024-01-30T06:27:37;16.30;;;7.05;;
32748;SDS011;19119;52.474;13.710;2024-01-30T06:30:03;17.00;;;8.15;;
32748;SDS011;19119;52.474;13.710;2024-01-30T06:32:29;14.93;;;8.30;;
32748;SDS011;19119;52.474;13.710;2024-01-30T06:34:59;15.13;;;7.63;;
32748;SDS011;19119;52.474;13.710;2024-01-30T06:37:25;15.27;;;8.32;;
32748;SDS011;19119;52.474;13.710;2024-01-30T06:39:50;15.60;;;8.93;;
32748;SDS011;19119;52.474;13.710;2024-01-30T06:42:17;17.10;;;9.00;;
32748;SDS011;19119;52.474;13.710;2024-01-30T06:44:43;19.42;;;8.80;;
32748;SDS011;19119;52.474;13.710;2024-01-30T06:47:09;15.35;;;7.82;;
32748;SDS011;19119;52.474;13.710;2024-01-30T06:49:35;19.95;;;8.25;;
32748;SDS011;19119;52.474;13.710;2024-01-30T06:52:04;20.98;;;8.63;;
32748;SDS011;19119;52.474;13.710;2024-01-30T06:54:30;18.35;;;7.75;;
32748;SDS011;19119;52.474;13.710;2024-01-30T06:56:56;14.88;;;8.38;;
32748;SDS011;19119;52.474;13.710;2024-01-30T06:59:21;22.45;;;7.93;;
32748;SDS011;19119;52.474;13.710;2024-01-30T07:01:47;20.23;;;9.07;;
32748;SDS011;19119;52.474;13.710;2024-01-30T07:04:13;15.32;;;9.32;;
32748;SDS011;19119;52.474;13.710;2024-01-30T07:06:38;17.35;;;8.80;;
32748;SDS011;19119;52.474;13.710;2024-01-30T07:09:04;16.05;;;9.48;;
32748;SDS011;19119;52.474;13.710;2024-01-30T07:11:30;17.83;;;9.55;;
32748;SDS011;19119;52.474;13.710;2024-01-30T07:13:57;19.65;;;10.23;;
32748;SDS011;19119;52.474;13.710;2024-01-30T07:16:22;17.63;;;9.18;;
32748;SDS011;19119;52.474;13.710;2024-01-30T07:18:48;19.73;;;8.95;;
32748;SDS011;19119;52.474;13.710;2024-01-30T07:21:14;19.73;;;9.60;;
32748;SDS011;19119;52.474;13.710;2024-01-30T07:23:41;20.08;;;9.43;;
32748;SDS011;19119;52.474;13.710;2024-01-30T07:26:07;18.67;;;9.43;;
32748;SDS011;19119;52.474;13.710;2024-01-30T07:28:33;63.70;;;27.52;;
32748;SDS011;19119;52.474;13.710;2024-01-30T07:31:00;73.88;;;30.23;;
32748;SDS011;19119;52.474;13.710;2024-01-30T07:33:26;55.90;;;26.90;;
32748;SDS011;19119;52.474;13.710;2024-01-30T07:35:52;48.25;;;23.25;;
32748;SDS011;19119;52.474;13.710;2024-01-30T07:38:18;48.80;;;22.60;;
32748;SDS011;19119;52.474;13.710;2024-01-30T07:40:44;47.42;;;21.08;;
32748;SDS011;19119;52.474;13.710;2024-01-30T07:43:09;64.22;;;28.05;;
32748;SDS011;19119;52.474;13.710;2024-01-30T07:45:35;28.00;;;14.23;;
32748;SDS011;19119;52.474;13.710;2024-01-30T07:48:02;40.22;;;16.95;;
32748;SDS011;19119;52.474;13.710;2024-01-30T07:50:28;36.92;;;23.40;;
32748;SDS011;19119;52.474;13.710;2024-01-30T07:52:55;35.15;;;21.88;;
32748;SDS011;19119;52.474;13.710;2024-01-30T07:55:21;20.27;;;13.15;;
32748;SDS011;19119;52.474;13.710;2024-01-30T07:57:49;58.30;;;31.85;;
32748;SDS011;19119;52.474;13.710;2024-01-30T08:00:17;37.63;;;24.30;;
32748;SDS011;19119;52.474;13.710;2024-01-30T08:02:44;29.90;;;17.10;;
32748;SDS011;19119;52.474;13.710;2024-01-30T08:05:10;30.05;;;19.13;;
32748;SDS011;19119;52.474;13.710;2024-01-30T08:07:36;25.95;;;14.77;;
32748;SDS011;19119;52.474;13.710;2024-01-30T08:10:02;21.67;;;12.13;;
32748;SDS011;19119;52.474;13.710;2024-01-30T08:12:27;19.23;;;9.40;;
32748;SDS011;19119;52.474;13.710;2024-01-30T08:14:53;21.15;;;10.43;;
32748;SDS011;19119;52.474;13.710;2024-01-30T08:17:18;22.15;;;11.23;;
32748;SDS011;19119;52.474;13.710;2024-01-30T08:19:44;18.17;;;9.32;;
32748;SDS011;19119;52.474;13.710;2024-01-30T08:22:09;21.42;;;12.57;;
32748;SDS011;19119;52.474;13.710;2024-01-30T08:24:35;18.98;;;10.52;;
32748;SDS011;19119;52.474;13.710;2024-01-30T08:27:00;15.65;;;8.55;;
32748;SDS011;19119;52.474;13.710;2024-01-30T08:29:27;15.63;;;8.68;;
32748;SDS011;19119;52.474;13.710;2024-01-30T08:31:53;19.50;;;9.60;;
32748;SDS011;19119;52.474;13.710;2024-01-30T08:34:20;18.42;;;9.40;;
32748;SDS011;19119;52.474;13.710;2024-01-30T08:36:46;16.23;;;8.32;;
32748;SDS011;19119;52.474;13.710;2024-01-30T08:39:11;19.88;;;8.52;;
32748;SDS011;19119;52.474;13.710;2024-01-30T08:41:37;22.95;;;9.00;;
32748;SDS011;19119;52.474;13.710;2024-01-30T08:44:02;15.25;;;9.10;;
32748;SDS011;19119;52.474;13.710;2024-01-30T08:46:29;15.15;;;8.23;;
32748;SDS011;19119;52.474;13.710;2024-01-30T08:48:55;30.35;;;21.60;;
32748;SDS011;19119;52.474;13.710;2024-01-30T08:51:21;25.55;;;15.27;;
32748;SDS011;19119;52.474;13.710;2024-01-30T08:53:46;22.77;;;14.07;;
32748;SDS011;19119;52.474;13.710;2024-01-30T08:56:12;21.60;;;13.60;;
32748;SDS011;19119;52.474;13.710;2024-01-30T08:58:38;19.05;;;9.55;;
32748;SDS011;19119;52.474;13.710;2024-01-30T09:01:04;16.02;;;8.23;;
32748;SDS011;19119;52.474;13.710;2024-01-30T09:03:30;17.83;;;8.75;;
32748;SDS011;19119;52.474;13.710;2024-01-30T09:05:59;17.70;;;7.82;;
32748;SDS011;19119;52.474;13.710;2024-01-30T09:08:25;15.82;;;8.27;;
32748;SDS011;19119;52.474;13.710;2024-01-30T09:10:50;18.77;;;8.57;;
32748;SDS011;19119;52.474;13.710;2024-01-30T09:13:15;13.02;;;7.80;;
32748;SDS011;19119;52.474;13.710;2024-01-30T09:15:41;18.85;;;7.78;;
32748;SDS011;19119;52.474;13.710;2024-01-30T09:18:07;14.30;;;7.88;;
32748;SDS011;19119;52.474;13.710;2024-01-30T09:20:32;18.83;;;9.23;;
32748;SDS011;19119;52.474;13.710;2024-01-30T09:22:58;15.48;;;8.13;;
32748;SDS011;19119;52.474;13.710;2024-01-30T09:25:23;15.18;;;8.20;;
32748;SDS011;19119;52.474;13.710;2024-01-30T09:27:49;14.60;;;7.95;;
32748;SDS011;19119;52.474;13.710;2024-01-30T09:30:14;14.40;;;8.20;;
32748;SDS011;19119;52.474;13.710;2024-01-30T09:32:40;13.77;;;7.63;;
32748;SDS011;19119;52.474;13.710;2024-01-30T09:35:07;15.25;;;7.90;;
32748;SDS011;19119;52.474;13.710;2024-01-30T09:37:32;16.70;;;8.95;;
32748;SDS011;19119;52.474;13.710;2024-01-30T09:39:58;18.20;;;7.75;;
32748;SDS011;19119;52.474;13.710;2024-01-30T09:42:26;14.27;;;7.65;;
32748;SDS011;19119;52.474;13.710;2024-01-30T09:45:01;13.55;;;7.97;;
32748;SDS011;19119;52.474;13.710;2024-01-30T09:47:31;11.02;;;6.38;;
32748;SDS011;19119;52.474;13.710;2024-01-30T09:49:57;13.52;;;7.63;;
32748;SDS011;19119;52.474;13.710;2024-01-30T09:52:23;13.40;;;7.25;;
32748;SDS011;19119;52.474;13.710;2024-01-30T09:54:49;12.75;;;6.55;;
32748;SDS011;19119;52.474;13.710;2024-01-30T09:57:17;14.45;;;6.75;;
32748;SDS011;19119;52.474;13.710;2024-01-30T09:59:42;12.70;;;6.10;;
32748;SDS011;19119;52.474;13.710;2024-01-30T10:02:09;15.80;;;7.32;;
32748;SDS011;19119;52.474;13.710;2024-01-30T10:04:35;13.63;;;6.93;;
32748;SDS011;19119;52.474;13.710;2024-01-30T10:07:03;14.40;;;6.03;;
32748;SDS011;19119;52.474;13.710;2024-01-30T10:09:31;10.88;;;5.93;;
32748;SDS011;19119;52.474;13.710;2024-01-30T10:11:58;11.43;;;6.38;;
32748;SDS011;19119;52.474;13.710;2024-01-30T10:14:23;11.98;;;6.32;;
32748;SDS011;19119;52.474;13.710;2024-01-30T10:16:49;13.30;;;6.15;;
32748;SDS011;19119;52.474;13.710;2024-01-30T10:19:15;13.40;;;5.97;;
32748;SDS011;19119;52.474;13.710;2024-01-30T10:21:41;14.15;;;6.80;;
32748;SDS011;19119;52.474;13.710;2024-01-30T10:24:06;13.15;;;6.32;;
32748;SDS011;19119;52.474;13.710;2024-01-30T10:26:32;13.98;;;6.20;;
32748;SDS011;19119;52.474;13.710;2024-01-30T10:28:59;10.95;;;6.20;;
32748;SDS011;19119;52.474;13.710;2024-01-30T10:31:24;10.70;;;5.65;;
32748;SDS011;19119;52.474;13.710;2024-01-30T10:33:50;12.40;;;7.20;;
32748;SDS011;19119;52.474;13.710;2024-01-30T10:36:16;11.77;;;5.80;;
32748;SDS011;19119;52.474;13.710;2024-01-30T10:38:43;9.77;;;5.78;;
32748;SDS011;19119;52.474;13.710;2024-01-30T10:41:11;10.25;;;5.32;;
32748;SDS011;19119;52.474;13.710;2024-01-30T10:43:40;12.75;;;5.45;;
32748;SDS011;19119;52.474;13.710;2024-01-30T10:48:36;12.38;;;6.22;;
32748;SDS011;19119;52.474;13.710;2024-01-30T10:51:07;14.82;;;6.40;;
32748;SDS011;19119;52.474;13.710;2024-01-30T10:53:34;10.05;;;5.55;;
32748;SDS011;19119;52.474;13.710;2024-01-30T10:56:00;9.23;;;5.90;;
32748;SDS011;19119;52.474;13.710;2024-01-30T10:58:27;12.50;;;6.40;;
32748;SDS011;19119;52.474;13.710;2024-01-30T11:00:53;10.48;;;6.40;;
32748;SDS011;19119;52.474;13.710;2024-01-30T11:03:19;11.63;;;6.28;;
32748;SDS011;19119;52.474;13.710;2024-01-30T11:05:48;12.57;;;5.85;;
32748;SDS011;19119;52.474;13.710;2024-01-30T11:08:22;12.80;;;6.15;;
32748;SDS011;19119;52.474;13.710;2024-01-30T11:10:49;10.82;;;6.25;;
32748;SDS011;19119;52.474;13.710;2024-01-30T11:13:15;10.27;;;6.10;;
32748;SDS011;19119;52.474;13.710;2024-01-30T11:15:40;10.27;;;5.65;;
32748;SDS011;19119;52.474;13.710;2024-01-30T11:18:06;9.63;;;5.63;;
32748;SDS011;19119;52.474;13.710;2024-01-30T11:20:32;11.65;;;5.57;;
32748;SDS011;19119;52.474;13.710;2024-01-30T11:22:58;11.15;;;5.63;;
32748;SDS011;19119;52.474;13.710;2024-01-30T11:25:27;10.80;;;5.47;;
32748;SDS011;19119;52.474;13.710;2024-01-30T11:27:53;12.18;;;5.80;;
32748;SDS011;19119;52.474;13.710;2024-01-30T11:30:23;10.70;;;5.70;;
32748;SDS011;19119;52.474;13.710;2024-01-30T11:33:06;11.23;;;5.20;;
32748;SDS011;19119;52.474;13.710;2024-01-30T11:35:36;10.98;;;5.80;;
32748;SDS011;19119;52.474;13.710;2024-01-30T11:38:07;9.52;;;5.10;;
32748;SDS011;19119;52.474;13.710;2024-01-30T11:40:34;11.02;;;6.07;;
32748;SDS011;19119;52.474;13.710;2024-01-30T11:43:01;9.73;;;5.30;;
32748;SDS011;19119;52.474;13.710;2024-01-30T11:45:27;8.32;;;5.63;;
32748;SDS011;19119;52.474;13.710;2024-01-30T11:47:54;11.68;;;5.60;;
32748;SDS011;19119;52.474;13.710;2024-01-30T11:50:20;10.75;;;5.90;;
32748;SDS011;19119;52.474;13.710;2024-01-30T11:52:46;11.77;;;5.55;;
32748;SDS011;19119;52.474;13.710;2024-01-30T11:55:13;9.50;;;5.95;;
32748;SDS011;19119;52.474;13.710;2024-01-30T11:57:39;13.82;;;5.53;;
32748;SDS011;19119;52.474;13.710;2024-01-30T12:00:04;10.30;;;6.05;;
32748;SDS011;19119;52.474;13.710;2024-01-30T12:02:35;8.75;;;5.72;;
32748;SDS011;19119;52.474;13.710;2024-01-30T12:05:08;13.98;;;5.50;;
32748;SDS011;19119;52.474;13.710;2024-01-30T12:07:37;12.65;;;5.93;;
32748;SDS011;19119;52.474;13.710;2024-01-30T12:10:02;13.35;;;6.78;;
32748;SDS011;19119;52.474;13.710;2024-01-30T12:12:28;12.82;;;7.05;;
32748;SDS011;19119;52.474;13.710;2024-01-30T12:14:55;11.60;;;5.55;;
32748;SDS011;19119;52.474;13.710;2024-01-30T12:17:28;10.25;;;6.57;;
32748;SDS011;19119;52.474;13.710;2024-01-30T12:22:31;14.13;;;7.00;;
32748;SDS011;19119;52.474;13.710;2024-01-30T12:25:00;11.95;;;5.82;;
32748;SDS011;19119;52.474;13.710;2024-01-30T12:27:26;10.48;;;6.05;;
32748;SDS011;19119;52.474;13.710;2024-01-30T12:29:55;12.00;;;5.63;;
32748;SDS011;19119;52.474;13.710;2024-01-30T12:32:22;10.95;;;5.78;;
32748;SDS011;19119;52.474;13.710;2024-01-30T12:34:48;8.07;;;5.20;;
32748;SDS011;19119;52.474;13.710;2024-01-30T12:37:13;12.02;;;6.30;;
32748;SDS011;19119;52.474;13.710;2024-01-30T12:39:39;9.13;;;6.30;;
32748;SDS011;19119;52.474;13.710;2024-01-30T12:42:05;12.85;;;6.47;;
32748;SDS011;19119;52.474;13.710;2024-01-30T12:44:31;11.90;;;6.53;;
32748;SDS011;19119;52.474;13.710;2024-01-30T12:46:57;11.82;;;6.32;;
32748;SDS011;19119;52.474;13.710;2024-01-30T12:49:22;10.95;;;5.65;;
32748;SDS011;19119;52.474;13.710;2024-01-30T12:51:48;11.07;;;6.30;;
32748;SDS011;19119;52.474;13.710;2024-01-30T12:54:13;10.30;;;6.20;;
32748;SDS011;19119;52.474;13.710;2024-01-30T12:56:39;10.25;;;5.18;;
32748;SDS011;19119;52.474;13.710;2024-01-30T12:59:04;10.48;;;5.57;;
32748;SDS011;19119;52.474;13.710;2024-01-30T13:01:29;10.90;;;6.47;;
32748;SDS011;19119;52.474;13.710;2024-01-30T13:03:55;11.77;;;5.38;;
32748;SDS011;19119;52.474;13.710;2024-01-30T13:06:22;10.57;;;5.28;;
32748;SDS011;19119;52.474;13.710;2024-01-30T13:08:48;10.48;;;5.50;;
32748;SDS011;19119;52.474;13.710;2024-01-30T13:11:13;7.13;;;4.43;;
32748;SDS011;19119;52.474;13.710;2024-01-30T13:13:38;11.13;;;4.78;;
32748;SDS011;19119;52.474;13.710;2024-01-30T13:16:04;8.32;;;5.13;;
32748;SDS011;19119;52.474;13.710;2024-01-30T13:18:30;9.50;;;4.90;;
32748;SDS011;19119;52.474;13.710;2024-01-30T13:20:56;10.13;;;5.13;;
32748;SDS011;19119;52.474;13.710;2024-01-30T13:23:22;12.65;;;5.38;;
32748;SDS011;19119;52.474;13.710;2024-01-30T13:25:47;11.45;;;5.22;;
32748;SDS011;19119;52.474;13.710;2024-01-30T13:28:16;10.05;;;5.63;;
32748;SDS011;19119;52.474;13.710;2024-01-30T13:30:41;10.20;;;5.28;;
32748;SDS011;19119;52.474;13.710;2024-01-30T13:33:09;9.73;;;4.63;;
32748;SDS011;19119;52.474;13.710;2024-01-30T13:35:35;8.40;;;5.03;;
32748;SDS011;19119;52.474;13.710;2024-01-30T13:38:00;15.35;;;5.55;;
32748;SDS011;19119;52.474;13.710;2024-01-30T13:40:25;11.02;;;5.18;;
32748;SDS011;19119;52.474;13.710;2024-01-30T13:42:51;9.90;;;5.65;;
32748;SDS011;19119;52.474;13.710;2024-01-30T13:45:17;10.00;;;5.10;;
32748;SDS011;19119;52.474;13.710;2024-01-30T13:47:42;14.45;;;6.60;;
32748;SDS011;19119;52.474;13.710;2024-01-30T13:50:08;9.73;;;5.47;;
32748;SDS011;19119;52.474;13.710;2024-01-30T13:52:35;16.85;;;10.65;;
32748;SDS011;19119;52.474;13.710;2024-01-30T13:55:01;11.70;;;5.75;;
32748;SDS011;19119;52.474;13.710;2024-01-30T13:57:26;12.18;;;6.03;;
32748;SDS011;19119;52.474;13.710;2024-01-30T13:59:52;16.48;;;10.15;;
32748;SDS011;19119;52.474;13.710;2024-01-30T14:02:17;10.85;;;5.47;;
32748;SDS011;19119;52.474;13.710;2024-01-30T14:04:43;9.55;;;4.57;;
32748;SDS011;19119;52.474;13.710;2024-01-30T14:07:08;12.63;;;5.38;;
32748;SDS011;19119;52.474;13.710;2024-01-30T14:09:34;14.90;;;6.13;;
32748;SDS011;19119;52.474;13.710;2024-01-30T14:12:00;11.80;;;6.13;;
32748;SDS011;19119;52.474;13.710;2024-01-30T14:14:25;11.93;;;7.63;;
32748;SDS011;19119;52.474;13.710;2024-01-30T14:16:51;15.85;;;8.80;;
32748;SDS011;19119;52.474;13.710;2024-01-30T14:19:16;11.15;;;6.22;;